Friday Harbor, Washington
Current Conditions -  °F | °C
As of 3:53 AM on Saturday 25 Oct 2014 (Local Time) from KFHR Reporting Station
Overcast Overcast  
Wind Chill:   Ceiling: 7000
Heat Index:   Visibility: 10mi
Dew Point:   Wind: 6mph
Humidity: 93%   Direction: 340°NNW
Pressure: 29.61"   Gusts: NA
Location:  48.53°N, 123.02°W
Report Text: KFHR 251053Z AUTO 34005KT 10SM OVC070 09/08 A2961 RMK AO2 RAE20 SLP027 P0000 T00940083
Loading
Personal Weather Stations






























Interactive Weather Map
Tropical Storm Tracking
New forecast layout! Learn more

10-Day Weather Forecast

Advertisements
Track Severe Weather on mobile